»·PEaware :: N55NT KVGT-KSNA

N55NT :: KVGT-KSNA

FLIGHT INFORMATION

Flight Status: Arrived
Operator: Privately registered:
United States
More flights under this callsign
Pilot: Craig H. (6968)
Aircraft: CIRRUS SR-22 TURBO
(S22T)
More flights by this aircraft type
Origin: KVGT North Las Vegas
United States
Destination: KSNA John Wayne-Orange Co
United States
More flights between these airports :: More routes between these airports
Route: +NOTWN5 LAS V538 GFS V210 HEC V442 PDZ PDZ270 RNDAL V363 POXKU V8 SLI
File this flight plan on PilotEdge
Remarks:
Altitude:
(Current/Filed)
16,000ft
Speed:
(Current/Filed)
190kts
Departed: 23-Oct-20 05:42 PM
Arrived: 23-Oct-20 07:12 PM
Distance/Time
Traveled:
202nm/1:30
Distance/Time
To Go:
Arrived

Flight Plot

Page will automatically refresh every two minutes.

Flight plan parsing failed; only flown route is shown


Map Options




Map Legend


Flown Route
Filed Route
Departure Airport
Arrival Airport
Navaid (VOR, NDB)
Fix

Horizontal Profiles

Position Reports

Time Latitude Longitude Heading Altitude Ground
Speed
23-Oct-20 17:24 36.209972 -115.199226 316 2196ft 0kts
23-Oct-20 17:25 36.209972 -115.199226 316 2196ft 0kts
23-Oct-20 17:26 36.209972 -115.199226 316 2196ft 0kts
23-Oct-20 17:27 36.209972 -115.199226 316 2196ft 0kts
23-Oct-20 17:28 36.209972 -115.199226 316 2196ft 0kts
23-Oct-20 17:29 36.209972 -115.199226 316 2196ft 0kts
23-Oct-20 17:30 36.209972 -115.199226 316 2196ft 0kts
23-Oct-20 17:31 36.209972 -115.199226 316 2196ft 0kts
23-Oct-20 17:32 36.209972 -115.199226 316 2196ft 0kts
23-Oct-20 17:33 36.210158 -115.199288 30 2197ft 0kts
23-Oct-20 17:34 36.210249 -115.199213 32 2197ft 0kts
23-Oct-20 17:35 36.210249 -115.199213 32 2197ft 0kts
23-Oct-20 17:36 36.210249 -115.199213 32 2197ft 0kts
23-Oct-20 17:37 36.211115 -115.199337 313 2199ft 10kts
23-Oct-20 17:39 36.212635 -115.202897 266 2207ft 10kts
23-Oct-20 17:40 36.212701 -115.203220 310 2207ft 0kts
23-Oct-20 17:41 36.214526 -115.202485 137 2206ft 0kts
23-Oct-20 17:42 36.197929 -115.183458 154 2871ft 117kts
23-Oct-20 17:43 36.180818 -115.210647 265 4162ft 130kts
23-Oct-20 17:44 36.193420 -115.246978 323 5548ft 132kts
23-Oct-20 17:45 36.225339 -115.272186 325 6872ft 139kts
23-Oct-20 17:46 36.256409 -115.267364 85 8180ft 143kts
23-Oct-20 17:47 36.228823 -115.242717 163 9498ft 136kts
23-Oct-20 17:48 36.193054 -115.224429 162 10761ft 143kts
23-Oct-20 17:49 36.156056 -115.203567 163 12005ft 150kts
23-Oct-20 17:50 36.117745 -115.181604 164 13244ft 154kts
23-Oct-20 17:51 36.078464 -115.160120 185 14445ft 150kts
23-Oct-20 17:52 36.037282 -115.160482 190 15656ft 150kts
23-Oct-20 17:53 35.990914 -115.161391 189 15986ft 187kts
23-Oct-20 17:53 35.946603 -115.162118 188 15970ft 192kts
23-Oct-20 17:55 35.884482 -115.163200 189 15971ft 191kts
23-Oct-20 17:55 35.840379 -115.163977 189 15971ft 191kts
23-Oct-20 17:57 35.778607 -115.165069 189 15971ft 191kts
23-Oct-20 17:57 35.734304 -115.165850 189 15971ft 191kts
23-Oct-20 17:58 35.681271 -115.166782 189 15971ft 191kts
23-Oct-20 18:00 35.619497 -115.167867 189 15971ft 190kts
23-Oct-20 18:00 35.575442 -115.168642 189 15978ft 190kts
23-Oct-20 18:02 35.514061 -115.169715 189 16053ft 190kts
23-Oct-20 18:02 35.469839 -115.170488 188 16045ft 191kts
23-Oct-20 18:03 35.416615 -115.171416 188 16034ft 192kts
23-Oct-20 18:04 35.363323 -115.172343 188 16022ft 192kts
23-Oct-20 18:05 35.310070 -115.173278 188 16023ft 191kts
23-Oct-20 18:06 35.256901 -115.174210 188 16022ft 191kts
23-Oct-20 18:07 35.203751 -115.175129 188 16021ft 191kts
23-Oct-20 18:08 35.164871 -115.200789 250 16031ft 169kts
23-Oct-20 18:09 35.148564 -115.255065 252 16027ft 170kts
23-Oct-20 18:10 35.132892 -115.309609 252 16026ft 170kts
23-Oct-20 18:11 35.117279 -115.364218 252 16024ft 170kts
23-Oct-20 18:12 35.101686 -115.418697 252 16024ft 170kts
23-Oct-20 18:13 35.086067 -115.473201 252 16023ft 170kts
23-Oct-20 18:14 35.070458 -115.527501 252 16023ft 170kts
23-Oct-20 18:15 35.054803 -115.581884 252 16023ft 170kts
23-Oct-20 18:16 35.039121 -115.636256 252 16022ft 170kts
23-Oct-20 18:17 35.023388 -115.690689 251 16028ft 170kts
23-Oct-20 18:18 35.007570 -115.745323 251 16028ft 170kts
23-Oct-20 18:19 34.991684 -115.800098 251 16028ft 171kts
23-Oct-20 18:20 34.975709 -115.855056 251 16027ft 171kts
23-Oct-20 18:21 34.959773 -115.909774 251 16027ft 171kts
23-Oct-20 18:22 34.943800 -115.964527 251 16032ft 171kts
23-Oct-20 18:23 34.927742 -116.019459 251 16040ft 171kts
23-Oct-20 18:24 34.911795 -116.073909 251 16048ft 171kts
23-Oct-20 18:25 34.895737 -116.128622 251 16057ft 170kts
23-Oct-20 18:26 34.879684 -116.183212 251 16063ft 171kts
23-Oct-20 18:27 34.863628 -116.237729 251 16070ft 170kts
23-Oct-20 18:28 34.847606 -116.292014 251 16079ft 170kts
23-Oct-20 18:29 34.831593 -116.346150 251 16077ft 171kts
23-Oct-20 18:30 34.815355 -116.400964 251 16042ft 170kts
23-Oct-20 18:31 34.799298 -116.455054 251 16051ft 170kts
23-Oct-20 18:32 34.780719 -116.508219 248 16061ft 170kts
23-Oct-20 18:33 34.761738 -116.561120 248 16072ft 170kts
23-Oct-20 18:34 34.742667 -116.614162 248 16082ft 170kts
23-Oct-20 18:35 34.723618 -116.667039 248 16099ft 170kts
23-Oct-20 18:36 34.704477 -116.720113 247 16101ft 171kts
23-Oct-20 18:37 34.684756 -116.774731 247 15654ft 186kts
23-Oct-20 18:38 34.663539 -116.833353 247 14877ft 191kts
23-Oct-20 18:39 34.642036 -116.892605 247 14096ft 192kts
23-Oct-20 18:40 34.621593 -116.948889 247 14042ft 174kts
23-Oct-20 18:41 34.602262 -117.002012 247 14039ft 171kts
23-Oct-20 18:42 34.582941 -117.054998 247 14028ft 171kts
23-Oct-20 18:43 34.563541 -117.108120 246 14021ft 172kts
23-Oct-20 18:44 34.538039 -117.155264 212 14026ft 177kts
23-Oct-20 18:45 34.493776 -117.182645 211 14017ft 178kts
23-Oct-20 18:46 34.449586 -117.209539 211 14017ft 178kts
23-Oct-20 18:47 34.403814 -117.237365 210 13556ft 192kts
23-Oct-20 18:48 34.355571 -117.266582 210 12858ft 196kts
23-Oct-20 18:49 34.306923 -117.296041 209 12154ft 196kts
23-Oct-20 18:50 34.257868 -117.325731 209 11337ft 197kts
23-Oct-20 18:51 34.208926 -117.355287 208 10549ft 196kts
23-Oct-20 18:52 34.159928 -117.384835 207 9758ft 196kts
23-Oct-20 18:53 34.111169 -117.414210 206 8971ft 195kts
23-Oct-20 18:54 34.062718 -117.443330 206 8152ft 194kts
23-Oct-20 18:55 34.014867 -117.472085 206 7369ft 191kts
23-Oct-20 18:56 33.967358 -117.500602 206 6584ft 190kts
23-Oct-20 18:57 33.922881 -117.532694 246 5815ft 190kts
23-Oct-20 18:58 33.932645 -117.594173 283 5015ft 185kts
23-Oct-20 18:59 33.945764 -117.653164 283 4199ft 179kts
23-Oct-20 19:00 33.957913 -117.707900 282 3984ft 158kts
23-Oct-20 19:01 33.969088 -117.758368 282 3989ft 154kts
23-Oct-20 19:02 33.948914 -117.784441 161 3998ft 153kts
23-Oct-20 19:03 33.908354 -117.766347 161 3990ft 157kts
23-Oct-20 19:04 33.868141 -117.771137 204 3992ft 153kts
23-Oct-20 19:05 33.828314 -117.790360 198 4014ft 154kts
23-Oct-20 19:06 33.788116 -117.805225 199 3459ft 144kts
23-Oct-20 19:07 33.753511 -117.820694 204 2474ft 133kts
23-Oct-20 19:08 33.723723 -117.838760 206 1522ft 108kts
23-Oct-20 19:09 33.697931 -117.854721 207 654ft 95kts
23-Oct-20 19:10 33.677134 -117.867908 208 59ft 60kts
23-Oct-20 19:11 33.668895 -117.871331 162 59ft 15kts
23-Oct-20 19:12 33.666145 -117.873317 136 59ft 8kts
23-Oct-20 19:13 33.666029 -117.872998 34 59ft 0kts
23-Oct-20 19:14 33.666029 -117.872998 34 59ft 0kts

Navigation Log

Ident Type
Flight plan parsing failed, navigation log unavailable